Time;durP1;ratioP1;P1;durP2;ratioP2;P2;SDS_P1;SDS_P2;PMS_P1;PMS_P2;Temp;Humidity;BMP_temperature;BMP_pressure;BME280_temperature;BME280_humidity;BME280_pressure;Samples;Min_cycle;Max_cycle;Signal;HPM_P1;HPM_P2
2021/11/04 00:01:40;;;;;;;4.72;2.70;;;;;;;6.11;91.25;94729.06;5027468;28;20045;-74
2021/11/04 00:04:06;;;;;;;5.05;2.90;;;;;;;6.08;91.45;94708.09;5025610;28;20049;-74
2021/11/04 00:06:33;;;;;;;4.22;2.83;;;;;;;6.10;91.71;94705.03;5027073;28;20045;-75
2021/11/04 00:08:59;;;;;;;5.75;3.38;;;;;;;6.10;91.45;94702.34;5027267;28;20052;-74
2021/11/04 00:11:27;;;;;;;5.65;3.03;;;;;;;6.09;91.25;94698.06;5030210;28;20048;-75
2021/11/04 00:13:54;;;;;;;4.50;3.13;;;;;;;6.06;91.22;94687.94;5029866;28;20056;-75
2021/11/04 00:16:20;;;;;;;5.90;2.95;;;;;;;6.05;91.57;94689.81;5029205;28;20073;-74
2021/11/04 00:18:47;;;;;;;4.68;3.10;;;;;;;6.07;91.28;94681.41;5030291;28;20054;-75
2021/11/04 00:21:13;;;;;;;4.22;3.10;;;;;;;6.12;91.50;94675.81;5029326;28;20056;-74
2021/11/04 00:23:40;;;;;;;4.80;3.20;;;;;;;6.13;91.19;94682.78;5030544;28;20041;-74
2021/11/04 00:26:06;;;;;;;5.47;2.88;;;;;;;6.13;90.88;94678.16;5028302;28;20056;-74
2021/11/04 00:28:34;;;;;;;5.03;3.30;;;;;;;6.18;90.86;94674.47;5030364;28;20057;-75
2021/11/04 00:31:01;;;;;;;5.20;2.70;;;;;;;6.19;90.88;94673.34;5029450;28;20045;-75
2021/11/04 00:33:27;;;;;;;4.85;2.88;;;;;;;6.23;91.08;94675.06;5029989;28;20056;-79
2021/11/04 00:35:54;;;;;;;4.40;3.10;;;;;;;6.29;90.93;94681.06;5029541;28;20455;-75
2021/11/04 00:38:20;;;;;;;4.50;2.55;;;;;;;6.29;90.17;94681.06;5029444;28;20045;-75
2021/11/04 00:40:47;;;;;;;3.80;2.55;;;;;;;6.28;90.36;94690.28;5029883;28;20061;-75
2021/11/04 00:43:13;;;;;;;4.13;2.85;;;;;;;6.32;90.01;94685.00;5029084;28;20057;-75
2021/11/04 00:45:41;;;;;;;4.60;3.03;;;;;;;6.34;90.31;94686.25;5029606;28;20714;-75
2021/11/04 00:48:07;;;;;;;6.18;4.10;;;;;;;6.36;89.94;94678.59;5028480;28;20060;-74
2021/11/04 00:50:34;;;;;;;6.95;4.30;;;;;;;6.37;90.02;94672.09;5030124;28;20045;-75
2021/11/04 00:53:00;;;;;;;9.35;4.55;;;;;;;6.37;90.10;94666.69;5029154;28;20535;-76
2021/11/04 00:55:27;;;;;;;7.15;4.82;;;;;;;6.33;90.03;94664.97;5029795;28;20045;-75
2021/11/04 00:57:53;;;;;;;6.93;4.65;;;;;;;6.33;90.14;94654.94;5028533;28;20041;-75
2021/11/04 01:00:20;;;;;;;7.47;4.70;;;;;;;6.35;90.44;94662.72;5027225;28;20579;-75
2021/11/04 01:02:48;;;;;;;7.20;4.90;;;;;;;6.37;90.14;94655.06;5029288;28;20581;-76
2021/11/04 01:05:15;;;;;;;6.75;4.95;;;;;;;6.33;90.60;94646.84;5029297;28;20060;-74
2021/11/04 01:07:42;;;;;;;6.38;4.55;;;;;;;6.33;90.82;94646.03;5029440;28;20044;-75
2021/11/04 01:10:09;;;;;;;7.28;5.28;;;;;;;6.33;90.68;94649.53;5028527;28;20171;-75
2021/11/04 01:12:35;;;;;;;7.40;5.05;;;;;;;6.30;90.56;94658.31;5029368;28;20045;-75
2021/11/04 01:15:02;;;;;;;8.63;5.15;;;;;;;6.28;91.07;94657.84;5027718;28;20575;-73
2021/11/04 01:17:30;;;;;;;8.65;5.50;;;;;;;6.27;90.92;94650.88;5029807;28;20071;-75
2021/11/04 01:19:57;;;;;;;8.32;5.40;;;;;;;6.32;91.38;94650.66;5028785;28;20049;-75
2021/11/04 01:22:24;;;;;;;7.53;5.65;;;;;;;6.34;91.23;94645.72;5028915;28;20049;-75
2021/11/04 01:24:51;;;;;;;9.00;6.30;;;;;;;6.37;91.31;94647.75;5029632;28;20053;-75
2021/11/04 01:27:17;;;;;;;9.52;5.75;;;;;;;6.40;91.09;94641.66;5048396;28;20567;-76
2021/11/04 01:29:44;;;;;;;9.23;6.03;;;;;;;6.43;91.30;94649.13;5049162;28;20048;-75
2021/11/04 01:32:10;;;;;;;8.48;5.88;;;;;;;6.42;91.00;94636.75;5048334;28;20136;-75
2021/11/04 01:34:37;;;;;;;9.70;5.95;;;;;;;6.42;90.93;94642.16;5048805;28;20053;-75
2021/11/04 01:37:05;;;;;;;9.13;6.22;;;;;;;6.35;90.47;94631.06;5047766;28;20056;-76
2021/11/04 01:39:31;;;;;;;8.27;6.15;;;;;;;6.34;90.87;94629.47;5049071;28;20053;-75
2021/11/04 01:41:58;;;;;;;9.32;6.13;;;;;;;6.30;90.72;94631.28;5048123;28;20060;-75
2021/11/04 01:44:24;;;;;;;10.00;7.10;;;;;;;6.25;91.04;94618.75;5047983;28;20068;-75
2021/11/04 01:46:51;;;;;;;9.68;6.55;;;;;;;6.23;91.09;94617.50;5048186;28;20056;-75
2021/11/04 01:49:17;;;;;;;12.05;7.07;;;;;;;6.22;91.22;94607.84;5047742;28;20060;-75
2021/11/04 01:51:44;;;;;;;11.52;7.38;;;;;;;6.19;91.45;94584.16;5048370;28;20488;-75
2021/11/04 01:54:12;;;;;;;10.90;7.72;;;;;;;6.18;91.72;94586.06;5048043;28;20068;-75
2021/11/04 01:56:39;;;;;;;11.52;7.35;;;;;;;6.14;91.79;94600.56;5032689;28;20417;-75
2021/11/04 01:59:06;;;;;;;10.82;6.90;;;;;;;6.11;91.93;94610.16;5027583;28;20045;-76
2021/11/04 02:01:32;;;;;;;10.07;6.82;;;;;;;6.11;92.13;94612.84;5028991;28;20049;-75
2021/11/04 02:04:05;;;;;;;11.25;7.22;;;;;;;6.08;91.82;94599.22;5027561;28;20072;-75
2021/11/04 02:06:37;;;;;;;10.98;7.43;;;;;;;6.01;92.26;94605.94;5028507;28;20045;-75
2021/11/04 02:09:07;;;;;;;15.40;8.43;;;;;;;6.01;92.30;94616.75;5028273;28;20046;-75
2021/11/04 02:11:39;;;;;;;12.88;7.80;;;;;;;6.07;92.73;94624.66;5027958;28;20049;-74
2021/11/04 02:14:10;;;;;;;20.20;8.45;;;;;;;6.09;92.76;94625.09;5027512;28;20069;-75
2021/11/04 02:16:38;;;;;;;31.58;8.90;;;;;;;6.08;92.11;94600.00;5027598;28;20049;-75
2021/11/04 02:19:19;;;;;;;20.20;7.88;;;;;;;6.07;92.31;94597.63;5027850;28;20053;-74
2021/11/04 02:21:56;;;;;;;11.77;8.23;;;;;;;6.15;92.48;94626.47;5026792;28;21066;-74
2021/11/04 02:24:28;;;;;;;11.55;7.10;;;;;;;6.16;91.63;94625.34;5027677;28;20045;-75
2021/11/04 02:26:59;;;;;;;10.27;7.05;;;;;;;6.10;92.13;94615.88;5027876;28;20056;-75
2021/11/04 02:29:26;;;;;;;12.15;8.02;;;;;;;6.05;92.39;94605.25;5027387;28;20092;-75
2021/11/04 02:31:53;;;;;;;13.00;7.75;;;;;;;6.03;92.75;94596.72;5027240;28;20053;-76
2021/11/04 02:34:19;;;;;;;14.77;8.73;;;;;;;6.00;92.67;94582.75;5027263;28;20057;-75
2021/11/04 02:36:46;;;;;;;10.25;6.53;;;;;;;5.94;92.94;94588.66;5028021;28;20061;-76
2021/11/04 02:39:14;;;;;;;11.38;6.75;;;;;;;5.87;92.99;94594.59;5026523;28;20041;-75
2021/11/04 02:41:41;;;;;;;11.43;6.78;;;;;;;5.80;93.05;94593.56;5028021;28;20049;-75
2021/11/04 02:44:10;;;;;;;10.40;6.82;;;;;;;5.73;93.57;94589.44;5027242;28;20053;-73
2021/11/04 02:46:38;;;;;;;11.05;6.60;;;;;;;5.71;93.74;94590.91;5027907;28;20049;-75
2021/11/04 02:49:05;;;;;;;10.90;6.75;;;;;;;5.72;94.23;94595.19;5027247;28;20053;-75
2021/11/04 02:51:32;;;;;;;10.43;5.90;;;;;;;5.70;94.10;94579.31;5027701;28;20045;-75
2021/11/04 02:53:59;;;;;;;9.30;4.97;;;;;;;5.68;93.84;94581.53;5027201;28;20053;-76
2021/11/04 02:56:41;;;;;;;8.77;5.18;;;;;;;5.66;94.00;94591.09;5026960;28;20045;-75
2021/11/04 02:59:10;;;;;;;8.55;5.47;;;;;;;5.64;94.21;94596.06;5026857;28;20057;-75
2021/11/04 03:01:40;;;;;;;8.40;4.97;;;;;;;5.62;94.08;94592.88;5026684;28;20056;-75
2021/11/04 03:04:07;;;;;;;6.13;4.15;;;;;;;5.54;93.84;94591.03;5027116;28;20048;-74
2021/11/04 03:06:33;;;;;;;6.28;4.40;;;;;;;5.50;93.68;94591.69;5026707;28;20049;-75
2021/11/04 03:08:59;;;;;;;6.93;4.13;;;;;;;5.45;93.94;94578.38;5027268;28;20053;-76
2021/11/04 03:11:26;;;;;;;5.78;3.53;;;;;;;5.44;93.87;94570.63;5026256;28;20053;-75
2021/11/04 03:13:52;;;;;;;7.15;3.58;;;;;;;5.39;93.75;94563.50;5026904;28;20073;-75
2021/11/04 03:16:22;;;;;;;5.60;3.90;;;;;;;5.34;93.99;94569.09;5026162;28;20056;-76
2021/11/04 03:18:50;;;;;;;6.47;4.13;;;;;;;5.30;93.88;94572.78;5026888;28;20057;-75
2021/11/04 03:21:16;;;;;;;6.38;4.10;;;;;;;5.25;93.82;94573.75;5026776;28;20421;-75
2021/11/04 03:23:43;;;;;;;5.10;3.17;;;;;;;5.23;93.84;94565.22;5026215;28;20445;-75
2021/11/04 03:26:11;;;;;;;4.28;3.33;;;;;;;5.18;93.84;94565.41;5027395;28;20060;-75
2021/11/04 03:28:38;;;;;;;4.43;3.05;;;;;;;5.16;93.73;94559.53;5026476;28;20056;-76
2021/11/04 03:31:05;;;;;;;4.47;2.67;;;;;;;5.14;94.20;94561.75;5027003;28;20504;-76
2021/11/04 03:33:35;;;;;;;5.68;2.75;;;;;;;5.12;94.29;94566.72;5026410;28;20057;-76
2021/11/04 03:36:02;;;;;;;4.25;2.70;;;;;;;5.11;94.58;94567.81;5026705;28;20053;-72
2021/11/04 03:38:30;;;;;;;5.90;3.17;;;;;;;5.10;94.39;94555.44;5026822;28;20049;-75
2021/11/04 03:40:59;;;;;;;5.20;2.70;;;;;;;5.04;94.01;94583.72;5026591;28;20053;-76
2021/11/04 03:43:26;;;;;;;3.65;2.55;;;;;;;5.00;94.08;94598.97;5026512;28;20811;-75
2021/11/04 03:45:53;;;;;;;3.92;2.45;;;;;;;4.97;94.34;94617.41;5029723;28;20049;-76
2021/11/04 03:48:20;;;;;;;4.65;2.42;;;;;;;4.98;94.75;94616.28;5030721;28;20053;-75
2021/11/04 03:50:50;;;;;;;3.15;2.35;;;;;;;5.00;94.27;94642.13;5029922;28;20527;-76
2021/11/04 03:53:17;;;;;;;3.90;2.25;;;;;;;4.95;94.22;94661.97;5030524;28;20053;-75
2021/11/04 03:55:44;;;;;;;3.97;2.05;;;;;;;4.93;93.58;94648.81;5029932;28;20053;-75
2021/11/04 03:58:11;;;;;;;2.47;1.80;;;;;;;4.87;93.33;94649.34;5030261;28;20056;-74
2021/11/04 04:00:37;;;;;;;3.28;1.65;;;;;;;4.82;93.47;94641.41;5030133;28;20052;-76
2021/11/04 04:03:04;;;;;;;4.30;1.83;;;;;;;4.83;93.63;94651.88;5029908;28;20049;-74
2021/11/04 04:05:32;;;;;;;3.50;1.85;;;;;;;4.82;93.81;94653.00;5030236;28;20049;-75
2021/11/04 04:08:01;;;;;;;3.58;2.00;;;;;;;4.83;93.91;94649.19;5029897;28;20057;-76
2021/11/04 04:10:30;;;;;;;3.00;1.67;;;;;;;4.85;93.82;94630.75;5047833;28;20048;-75
2021/11/04 04:12:56;;;;;;;3.42;2.10;;;;;;;4.81;93.88;94643.34;5049480;28;20099;-76
2021/11/04 04:15:23;;;;;;;3.60;1.98;;;;;;;4.79;93.49;94648.22;5049768;28;20053;-76
2021/11/04 04:17:49;;;;;;;2.55;1.70;;;;;;;4.77;93.73;94645.09;5049503;28;20049;-75
2021/11/04 04:20:16;;;;;;;3.45;1.77;;;;;;;4.77;94.19;94633.50;5049848;28;20504;-76
2021/11/04 04:22:43;;;;;;;2.42;1.77;;;;;;;4.76;94.08;94627.31;5049186;28;20052;-76
2021/11/04 04:25:11;;;;;;;3.67;2.00;;;;;;;4.76;94.23;94626.53;5045303;28;20045;-75
2021/11/04 04:27:37;;;;;;;3.38;1.90;;;;;;;4.74;94.13;94618.75;5029920;28;20056;-76
2021/11/04 04:30:05;;;;;;;2.70;1.83;;;;;;;4.70;94.01;94629.41;5029064;28;20425;-76
2021/11/04 04:32:32;;;;;;;3.80;1.63;;;;;;;4.72;93.88;94637.97;5030460;28;20077;-75
2021/11/04 04:34:58;;;;;;;3.40;1.85;;;;;;;4.68;94.29;94642.41;5028882;28;20057;-75
2021/11/04 04:37:24;;;;;;;3.53;1.90;;;;;;;4.67;93.93;94643.53;5029596;28;20042;-76
2021/11/04 04:39:51;;;;;;;2.20;1.60;;;;;;;4.65;94.38;94650.38;5029090;28;20096;-76
2021/11/04 04:42:19;;;;;;;2.60;1.60;;;;;;;4.59;93.75;94655.09;5029663;28;20053;-76
2021/11/04 04:44:45;;;;;;;3.63;1.83;;;;;;;4.59;94.43;94662.41;5028836;28;20053;-75
2021/11/04 04:47:12;;;;;;;3.63;1.60;;;;;;;4.61;94.58;94668.28;5029118;28;20053;-75
2021/11/04 04:49:38;;;;;;;3.33;1.90;;;;;;;4.62;94.27;94680.66;5029197;28;20524;-75
2021/11/04 04:52:05;;;;;;;2.47;1.58;;;;;;;4.58;94.63;94693.19;5028850;28;20053;-75
2021/11/04 04:54:31;;;;;;;3.22;1.77;;;;;;;4.61;94.78;94689.84;5027478;28;20050;-76
2021/11/04 04:56:58;;;;;;;3.53;2.58;;;;;;;4.62;94.12;94680.66;5029055;28;20045;-76
2021/11/04 04:59:26;;;;;;;3.53;2.13;;;;;;;4.62;94.26;94680.66;5029405;28;20587;-75
2021/11/04 05:01:52;;;;;;;3.63;2.33;;;;;;;4.58;94.04;94677.00;5028355;28;20692;-75
2021/11/04 05:04:19;;;;;;;3.72;2.15;;;;;;;4.53;94.43;94671.78;5028902;28;20507;-76
2021/11/04 05:06:45;;;;;;;3.83;2.40;;;;;;;4.54;94.73;94673.34;5028661;28;20493;-75
2021/11/04 05:09:11;;;;;;;4.20;2.50;;;;;;;4.57;94.60;94675.44;5028959;28;20076;-75
2021/11/04 05:11:38;;;;;;;3.80;2.40;;;;;;;4.54;94.54;94679.56;5028918;28;20060;-76
2021/11/04 05:14:05;;;;;;;4.32;2.60;;;;;;;4.57;94.77;94683.50;5028280;28;20049;-74
2021/11/04 05:16:33;;;;;;;3.88;2.30;;;;;;;4.58;95.12;94679.69;5028658;28;20499;-75
2021/11/04 05:18:59;;;;;;;4.18;2.25;;;;;;;4.59;94.71;94670.50;5028499;28;20420;-75
2021/11/04 05:21:26;;;;;;;3.22;2.15;;;;;;;4.59;94.62;94665.88;5028823;28;20049;-75
2021/11/04 05:23:53;;;;;;;3.83;2.35;;;;;;;4.58;95.04;94658.13;5027912;28;20127;-75
2021/11/04 05:26:20;;;;;;;4.22;2.03;;;;;;;4.57;94.68;94668.13;5028894;28;20059;-75
2021/11/04 05:28:46;;;;;;;3.63;2.25;;;;;;;4.57;95.00;94686.22;5028301;28;20057;-75
2021/11/04 05:31:13;;;;;;;2.85;1.85;;;;;;;4.61;94.85;94700.63;5028372;28;20054;-74
2021/11/04 05:33:40;;;;;;;4.75;2.28;;;;;;;4.57;94.43;94705.88;5028006;28;20046;-76
2021/11/04 05:36:07;;;;;;;3.53;2.17;;;;;;;4.55;94.46;94718.09;5027928;28;20045;-74
2021/11/04 05:38:33;;;;;;;3.13;2.05;;;;;;;4.55;94.35;94724.28;5028499;28;20041;-75
2021/11/04 05:41:00;;;;;;;2.92;2.08;;;;;;;4.56;94.83;94731.25;5028123;28;20049;-75
2021/11/04 05:43:26;;;;;;;3.20;2.25;;;;;;;4.58;94.30;94736.31;5028053;28;20053;-75
2021/11/04 05:45:53;;;;;;;3.85;2.17;;;;;;;4.57;94.91;94745.50;5027481;28;20057;-76
2021/11/04 05:48:19;;;;;;;4.05;2.42;;;;;;;4.61;94.64;94743.78;5028586;28;20071;-75
2021/11/04 05:50:47;;;;;;;4.00;2.40;;;;;;;4.63;94.38;94747.72;5027672;28;20084;-76
2021/11/04 05:53:14;;;;;;;2.63;1.95;;;;;;;4.62;94.20;94750.75;5028526;28;20559;-76
2021/11/04 05:55:41;;;;;;;5.40;2.45;;;;;;;4.62;93.94;94748.84;5027770;28;20046;-75
2021/11/04 05:58:07;;;;;;;3.30;2.17;;;;;;;4.58;93.27;94758.66;5027934;28;20500;-74
2021/11/04 06:00:34;;;;;;;3.95;2.78;;;;;;;4.55;93.72;94755.84;5027802;28;20052;-75
2021/11/04 06:03:00;;;;;;;4.90;2.97;;;;;;;4.58;94.01;94765.97;5027925;28;20827;-76
2021/11/04 06:05:27;;;;;;;5.00;3.08;;;;;;;4.59;94.06;94767.53;5019670;28;20052;-76
2021/11/04 06:07:54;;;;;;;5.40;3.50;;;;;;;4.61;94.26;94768.03;5026965;28;20088;-75
2021/11/04 06:10:21;;;;;;;5.22;3.00;;;;;;;4.61;93.97;94768.03;5027936;28;20049;-75
2021/11/04 06:12:48;;;;;;;3.60;2.63;;;;;;;4.56;93.48;94779.78;5027123;28;20049;-75
2021/11/04 06:15:14;;;;;;;3.90;2.50;;;;;;;4.52;93.48;94784.19;5027528;28;20508;-74
2021/11/04 06:17:41;;;;;;;3.22;2.00;;;;;;;4.52;93.68;94794.19;5026964;28;20041;-74
2021/11/04 06:20:09;;;;;;;3.33;2.30;;;;;;;4.54;93.79;94800.06;5027884;28;20049;-75
2021/11/04 06:22:35;;;;;;;5.20;2.50;;;;;;;4.61;94.09;94800.38;5026583;28;20515;-74
2021/11/04 06:25:04;;;;;;;4.47;1.90;;;;;;;4.62;93.24;94793.88;5028469;28;20057;-73
2021/11/04 06:27:30;;;;;;;2.78;1.83;;;;;;;4.61;92.91;94792.28;5046813;28;20575;-74
2021/11/04 06:29:57;;;;;;;2.20;1.50;;;;;;;4.51;92.46;94787.22;5046416;28;20740;-75
2021/11/04 06:32:23;;;;;;;3.30;1.75;;;;;;;4.47;92.47;94780.88;5044920;28;20049;-74
2021/11/04 06:34:50;;;;;;;2.25;1.60;;;;;;;4.41;92.32;94783.72;5045191;28;20059;-76
2021/11/04 06:37:16;;;;;;;2.10;1.38;;;;;;;4.35;92.32;94803.88;5046269;28;20070;-74
2021/11/04 06:39:43;;;;;;;1.80;1.15;;;;;;;4.28;92.24;94808.94;5046457;28;20049;-74
2021/11/04 06:42:11;;;;;;;1.60;1.23;;;;;;;4.27;92.43;94815.41;5047040;28;20049;-74
2021/11/04 06:44:37;;;;;;;2.50;1.50;;;;;;;4.26;92.87;94819.22;5046315;28;20084;-74
2021/11/04 06:47:07;;;;;;;1.55;1.27;;;;;;;4.24;92.77;94824.16;5046420;28;20124;-74
2021/11/04 06:49:37;;;;;;;1.98;1.23;;;;;;;4.18;92.29;94825.41;5047266;28;20137;-74
2021/11/04 06:52:09;;;;;;;1.40;0.90;;;;;;;4.16;92.64;94830.28;5046394;28;20428;-74
2021/11/04 06:54:41;;;;;;;1.73;0.93;;;;;;;4.15;91.92;94842.19;5047450;28;20049;-74
2021/11/04 06:57:13;;;;;;;1.40;0.90;;;;;;;4.12;91.56;94845.50;5045194;28;20053;-74
2021/11/04 06:59:44;;;;;;;1.65;1.20;;;;;;;4.14;91.77;94852.16;5047619;28;20393;-75
2021/11/04 07:02:15;;;;;;;1.25;0.90;;;;;;;4.16;91.01;94860.72;5045800;28;20053;-74
2021/11/04 07:04:43;;;;;;;1.63;1.10;;;;;;;4.19;91.12;94856.63;5047293;28;20577;-75
2021/11/04 07:07:10;;;;;;;2.40;1.40;;;;;;;4.19;90.92;94862.00;5046612;28;20060;-73
2021/11/04 07:09:41;;;;;;;2.17;1.38;;;;;;;4.28;91.59;94864.72;5046900;28;20045;-74
2021/11/04 07:12:10;;;;;;;1.40;1.05;;;;;;;4.36;91.39;94867.44;5047708;28;20500;-73
2021/11/04 07:14:41;;;;;;;2.38;1.50;;;;;;;4.42;90.33;94874.25;5049125;28;20075;-74
2021/11/04 07:17:10;;;;;;;2.50;1.48;;;;;;;4.45;89.79;94879.03;5048445;28;20041;-73
2021/11/04 07:19:37;;;;;;;1.38;1.10;;;;;;;4.47;89.65;94880.59;5052952;28;20045;-74
2021/11/04 07:22:14;;;;;;;1.77;1.38;;;;;;;4.47;89.94;94889.47;5054095;28;20048;-74
2021/11/04 07:24:46;;;;;;;4.00;1.40;;;;;;;4.51;89.62;94890.44;5052368;28;20041;-75
2021/11/04 07:27:16;;;;;;;1.90;1.40;;;;;;;4.54;89.34;94889.00;5032126;28;20520;-73
2021/11/04 07:29:45;;;;;;;3.88;1.60;;;;;;;4.57;89.58;94896.47;5032203;28;20095;-74
2021/11/04 07:32:16;;;;;;;2.40;1.52;;;;;;;4.57;88.64;94901.88;5031482;28;20056;-74
2021/11/04 07:34:45;;;;;;;3.60;1.65;;;;;;;4.58;88.24;94900.75;5032656;28;20053;-74
2021/11/04 07:37:13;;;;;;;2.15;1.42;;;;;;;4.53;87.52;94899.00;5031367;28;20049;-74
2021/11/04 07:39:41;;;;;;;2.67;1.58;;;;;;;4.51;87.62;94908.53;5034456;28;20045;-73
2021/11/04 07:42:09;;;;;;;2.08;1.50;;;;;;;4.56;88.22;94908.38;5032917;28;20049;-74
2021/11/04 07:44:36;;;;;;;2.55;1.55;;;;;;;4.55;87.06;94912.19;5033904;28;20147;-74
2021/11/04 07:47:05;;;;;;;1.98;1.45;;;;;;;4.51;86.39;94913.91;5033046;28;20385;-74
2021/11/04 07:49:33;;;;;;;2.00;1.50;;;;;;;4.54;87.20;94926.75;5033740;28;20046;-74
2021/11/04 07:52:01;;;;;;;2.17;1.65;;;;;;;4.57;87.80;94934.22;5033671;28;20053;-74
2021/11/04 07:54:28;;;;;;;2.42;1.50;;;;;;;4.58;86.86;94933.09;5033072;28;20048;-74
2021/11/04 07:56:54;;;;;;;1.23;1.00;;;;;;;4.58;86.81;94935.81;5034092;28;20056;-74
2021/11/04 07:59:21;;;;;;;1.85;1.42;;;;;;;4.59;86.99;94940.09;5032329;28;20124;-74
2021/11/04 08:01:47;;;;;;;1.42;1.13;;;;;;;4.64;87.30;94948.03;5034082;28;20056;-74
2021/11/04 08:04:14;;;;;;;1.58;1.20;;;;;;;4.66;86.75;94948.53;5032506;28;20045;-74
2021/11/04 08:06:42;;;;;;;1.45;1.25;;;;;;;4.67;86.54;94950.09;5033940;28;20045;-74
2021/11/04 08:09:08;;;;;;;3.85;1.27;;;;;;;4.64;86.02;94954.19;5032373;28;20048;-74
2021/11/04 08:11:35;;;;;;;3.90;1.38;;;;;;;4.62;86.03;94947.56;5033468;28;20404;-74
2021/11/04 08:14:01;;;;;;;1.73;1.30;;;;;;;4.63;85.75;94963.41;5032593;28;20053;-70
2021/11/04 08:16:27;;;;;;;2.08;1.60;;;;;;;4.64;85.89;94966.91;5033001;28;20501;-74
2021/11/04 08:18:54;;;;;;;2.20;1.50;;;;;;;4.71;86.62;94969.94;5033290;28;20056;-74
2021/11/04 08:21:20;;;;;;;2.38;1.60;;;;;;;4.76;85.69;94967.09;5032186;28;20058;-73
2021/11/04 08:23:48;;;;;;;3.47;2.22;;;;;;;4.81;85.71;94975.03;5033576;28;20053;-73
2021/11/04 08:26:15;;;;;;;1.85;1.40;;;;;;;4.92;86.23;94976.31;5032103;28;20536;-74
2021/11/04 08:28:42;;;;;;;1.90;1.50;;;;;;;4.93;86.28;94983.31;5033428;28;20045;-73
2021/11/04 08:31:09;;;;;;;2.92;1.52;;;;;;;5.14;85.98;94985.38;5031158;28;20076;-74
2021/11/04 08:33:35;;;;;;;2.28;1.20;;;;;;;5.28;83.94;94983.34;5033251;28;20053;-73
2021/11/04 08:36:02;;;;;;;1.42;1.08;;;;;;;5.30;82.46;95000.00;5032179;28;20052;-73
2021/11/04 08:38:28;;;;;;;1.55;1.20;;;;;;;5.40;82.54;95005.09;5032759;28;20107;-73
2021/11/04 08:40:56;;;;;;;1.92;1.33;;;;;;;5.46;82.89;95005.72;5032675;28;20049;-73
2021/11/04 08:43:23;;;;;;;1.90;1.20;;;;;;;5.45;82.69;95010.31;5032012;28;20175;-73
2021/11/04 08:45:49;;;;;;;1.92;1.27;;;;;;;5.38;82.46;95010.03;5032798;28;20501;-73
2021/11/04 08:48:18;;;;;;;3.50;1.55;;;;;;;5.32;83.08;95032.06;5031712;28;20053;-73
2021/11/04 08:50:45;;;;;;;1.92;1.40;;;;;;;5.31;83.69;95027.78;5033253;28;20440;-73
2021/11/04 08:53:11;;;;;;;2.22;1.50;;;;;;;5.32;83.75;95026.66;5032655;28;20501;-73
2021/11/04 08:55:38;;;;;;;2.50;1.75;;;;;;;5.40;84.88;95044.78;5040063;28;20053;-73
2021/11/04 08:58:06;;;;;;;1.90;1.35;;;;;;;5.47;83.69;95045.88;5051616;28;20488;-73
2021/11/04 09:00:32;;;;;;;2.45;1.70;;;;;;;5.48;83.59;95046.69;5052429;28;20041;-73
2021/11/04 09:02:59;;;;;;;3.13;1.40;;;;;;;5.46;82.40;95046.22;5052217;28;20558;-73
2021/11/04 09:05:25;;;;;;;2.35;1.40;;;;;;;5.44;83.50;95057.34;5051571;28;20045;-73
2021/11/04 09:07:52;;;;;;;1.88;1.30;;;;;;;5.40;82.84;95060.97;5052448;28;20052;-73
2021/11/04 09:10:21;;;;;;;2.88;1.55;;;;;;;5.31;82.99;95063.66;5051064;28;20045;-72
2021/11/04 09:12:47;;;;;;;1.67;1.20;;;;;;;5.29;83.90;95068.59;5052647;28;20041;-73
2021/11/04 09:15:15;;;;;;;1.60;1.13;;;;;;;5.29;84.48;95079.38;5051063;28;20074;-73
2021/11/04 09:17:42;;;;;;;2.60;1.25;;;;;;;5.26;84.67;95088.09;5052493;28;20048;-73
2021/11/04 09:20:11;;;;;;;3.17;1.10;;;;;;;5.25;82.92;95094.63;5051158;28;20049;-73
2021/11/04 09:22:37;;;;;;;1.95;1.20;;;;;;;5.20;84.29;95100.94;5052054;28;20405;-73
2021/11/04 09:25:05;;;;;;;2.05;1.20;;;;;;;5.09;83.75;95104.25;5048060;28;20052;-73
2021/11/04 09:27:32;;;;;;;1.15;0.90;;;;;;;5.04;84.79;95107.09;5031710;28;20048;-73
2021/11/04 09:29:59;;;;;;;2.03;1.15;;;;;;;5.04;85.41;95107.91;5032043;28;20053;-73
2021/11/04 09:32:27;;;;;;;1.55;1.13;;;;;;;5.00;84.92;95116.94;5030917;28;20057;-73
2021/11/04 09:34:54;;;;;;;1.45;0.90;;;;;;;5.00;86.12;95122.31;5032250;28;20049;-73
2021/11/04 09:37:20;;;;;;;1.80;1.13;;;;;;;5.06;86.36;95123.75;5030697;28;20079;-73
2021/11/04 09:39:48;;;;;;;1.10;1.00;;;;;;;5.09;86.61;95131.25;5032330;28;20061;-73
2021/11/04 09:42:17;;;;;;;1.42;1.10;;;;;;;5.12;85.49;95130.63;5030782;28;20073;-73
2021/11/04 09:44:44;;;;;;;1.33;0.90;;;;;;;5.08;84.55;95138.53;5031687;28;20137;-73
2021/11/04 09:47:11;;;;;;;1.75;1.13;;;;;;;5.04;86.06;95140.28;5030784;28;20501;-73
2021/11/04 09:49:39;;;;;;;2.50;1.05;;;;;;;5.05;85.49;95151.84;5031416;28;20033;-73
2021/11/04 09:52:06;;;;;;;1.95;1.10;;;;;;;5.04;85.06;95142.97;5031010;28;20049;-73
2021/11/04 09:54:32;;;;;;;1.40;1.05;;;;;;;5.04;85.10;95145.66;5031035;28;20049;-73
2021/11/04 09:56:59;;;;;;;2.00;1.10;;;;;;;5.06;84.64;95156.13;5031899;28;20064;-73
2021/11/04 09:59:25;;;;;;;2.53;1.38;;;;;;;5.07;85.01;95161.25;5030059;28;20049;-73
2021/11/04 10:01:52;;;;;;;1.65;1.10;;;;;;;5.14;83.92;95150.00;5031875;28;20385;-74
2021/11/04 10:04:36;;;;;;;1.70;1.10;;;;;;;5.21;83.99;95156.50;5030151;28;20052;-74
2021/11/04 10:07:06;;;;;;;1.70;1.20;;;;;;;5.31;83.26;95150.03;5030899;28;20456;-73
2021/11/04 10:09:32;;;;;;;2.05;1.30;;;;;;;5.43;82.78;95158.34;5031192;28;20041;-73
2021/11/04 10:12:05;;;;;;;2.00;1.38;;;;;;;5.60;83.70;95162.19;5030989;28;20057;-73
2021/11/04 10:14:34;;;;;;;2.33;1.30;;;;;;;5.76;82.60;95166.03;5031204;28;20041;-73
2021/11/04 10:17:00;;;;;;;1.77;1.40;;;;;;;5.92;81.23;95159.06;5030477;28;20041;-73
2021/11/04 10:19:40;;;;;;;2.42;1.20;;;;;;;5.95;80.48;95163.03;5031372;28;20041;-73
2021/11/04 10:22:08;;;;;;;1.70;1.40;;;;;;;5.96;80.01;95159.25;5029916;28;20053;-72
2021/11/04 10:24:34;;;;;;;1.70;1.27;;;;;;;5.90;79.52;95160.44;5031308;28;20045;-73
2021/11/04 10:27:01;;;;;;;1.60;1.20;;;;;;;5.89;80.13;95159.66;5030660;28;20512;-73
2021/11/04 10:29:36;;;;;;;1.88;1.33;;;;;;;5.94;79.83;95162.25;5030582;28;20042;-73
2021/11/04 10:32:02;;;;;;;2.30;1.38;;;;;;;5.94;78.65;95162.25;5030577;28;20052;-72
2021/11/04 10:34:31;;;;;;;1.75;1.23;;;;;;;5.99;78.31;95170.19;5030433;28;20045;-73
2021/11/04 10:37:10;;;;;;;1.67;1.20;;;;;;;6.08;78.92;95166.72;5030891;28;20502;-73
2021/11/04 10:39:37;;;;;;;1.92;1.25;;;;;;;6.15;78.25;95184.03;5029794;28;20045;-73
2021/11/04 10:42:04;;;;;;;1.60;1.15;;;;;;;6.22;77.92;95183.56;5030684;28;20517;-72
2021/11/04 10:44:32;;;;;;;1.35;1.02;;;;;;;6.25;76.67;95182.91;5030160;28;20061;-73
2021/11/04 10:46:59;;;;;;;1.90;1.30;;;;;;;6.32;78.38;95177.84;5030872;28;20045;-73
2021/11/04 10:49:27;;;;;;;1.88;1.40;;;;;;;6.41;76.10;95183.22;5029941;28;20042;-72
2021/11/04 10:51:57;;;;;;;2.08;1.35;;;;;;;6.47;76.17;95198.16;5030468;28;20077;-73
2021/11/04 10:54:26;;;;;;;1.63;1.15;;;;;;;6.44;75.79;95175.28;5029696;28;20108;-72
2021/11/04 10:56:54;;;;;;;2.00;1.50;;;;;;;6.42;77.03;95172.09;5030420;28;20053;-72
2021/11/04 10:59:21;;;;;;;1.73;1.27;;;;;;;6.48;76.09;95176.22;5030428;28;20085;-72
2021/11/04 11:01:49;;;;;;;2.45;1.40;;;;;;;6.52;76.81;95177.19;5029972;28;20045;-72
2021/11/04 11:04:18;;;;;;;1.58;1.20;;;;;;;6.56;76.54;95182.72;5030571;28;20061;-73
2021/11/04 11:06:47;;;;;;;1.52;1.10;;;;;;;6.57;74.98;95183.53;5030115;28;20041;-72
2021/11/04 11:09:15;;;;;;;1.98;1.30;;;;;;;6.51;73.55;95178.28;5030165;28;20058;-72
2021/11/04 11:11:46;;;;;;;1.50;1.13;;;;;;;6.50;75.46;95184.81;5030205;28;20046;-73
2021/11/04 11:14:14;;;;;;;1.48;1.20;;;;;;;6.59;75.39;95186.72;5030256;28;20175;-72
2021/11/04 11:16:43;;;;;;;2.38;1.50;;;;;;;6.64;74.69;95192.75;5030788;28;20056;-73
2021/11/04 11:19:11;;;;;;;2.30;1.50;;;;;;;6.66;73.98;95197.84;5029148;28;20100;-72
2021/11/04 11:21:42;;;;;;;2.65;1.58;;;;;;;6.63;74.71;95199.28;5030639;28;20042;-73
2021/11/04 11:24:11;;;;;;;3.13;1.60;;;;;;;6.63;74.09;95203.88;5029295;28;20080;-73
2021/11/04 11:26:38;;;;;;;2.35;1.73;;;;;;;6.66;74.78;95214.06;5030981;28;20051;-73
2021/11/04 11:29:06;;;;;;;2.20;1.70;;;;;;;6.70;74.50;95215.03;5029406;28;20603;-72
2021/11/04 11:31:33;;;;;;;2.63;1.65;;;;;;;6.59;73.59;95225.38;5030338;28;20057;-73
2021/11/04 11:34:24;;;;;;;2.15;1.65;;;;;;;6.56;74.65;95230.63;5030074;28;20041;-73
2021/11/04 11:37:21;;;;;;;2.30;1.80;;;;;;;6.58;74.31;95239.19;5030481;28;20038;-73
2021/11/04 11:39:50;;;;;;;3.55;2.08;;;;;;;6.60;73.88;95237.78;4969089;28;20183;-73
2021/11/04 11:42:18;;;;;;;3.97;1.73;;;;;;;6.63;75.05;95236.34;5015787;28;20042;-72
2021/11/04 11:44:51;;;;;;;2.33;1.75;;;;;;;6.69;74.51;95229.66;5030238;28;20057;-72